createdAt,value
2023-04-02T00:01:50.826Z,3.63
2023-04-02T00:07:30.844Z,3.70
2023-04-02T00:12:32.511Z,4.32
2023-04-02T00:17:34.126Z,2.95
2023-04-02T00:22:44.052Z,2.75
2023-04-02T00:27:45.930Z,2.45
2023-04-02T00:32:47.965Z,2.65
2023-04-02T00:37:49.840Z,3.00
2023-04-02T00:42:53.756Z,11.77
2023-04-02T00:47:56.348Z,3.00
2023-04-02T00:52:59.145Z,2.47
2023-04-02T00:58:01.528Z,2.70
2023-04-02T01:03:13.147Z,3.83
2023-04-02T01:08:45.526Z,3.88
2023-04-02T01:14:18.096Z,3.67
2023-04-02T01:19:19.834Z,3.63
2023-04-02T01:24:21.964Z,3.90
2023-04-02T01:29:26.444Z,3.97
2023-04-02T01:34:29.288Z,3.88
2023-04-02T01:39:46.588Z,3.53
2023-04-02T01:44:53.731Z,3.45
2023-04-02T01:50:24.280Z,3.25
2023-04-02T01:55:40.234Z,3.35
2023-04-02T02:00:46.773Z,3.35
2023-04-02T02:05:48.788Z,4.07
2023-04-02T02:10:50.924Z,3.38
2023-04-02T02:15:52.705Z,3.00
2023-04-02T02:20:55.261Z,3.42
2023-04-02T02:25:57.009Z,2.90
2023-04-02T02:31:22.584Z,3.40
2023-04-02T02:36:30.735Z,3.00
2023-04-02T02:41:36.359Z,2.08
2023-04-02T02:46:40.856Z,2.30
2023-04-02T02:51:49.164Z,2.38
2023-04-02T02:57:02.198Z,1.73
2023-04-02T03:02:07.171Z,1.80
2023-04-02T03:07:09.594Z,2.08
2023-04-02T03:12:28.746Z,1.70
2023-04-02T03:17:37.375Z,1.77
2023-04-02T03:22:47.314Z,1.65
2023-04-02T03:27:52.038Z,1.58
2023-04-02T03:32:59.308Z,1.58
2023-04-02T03:38:05.437Z,1.88
2023-04-02T03:43:25.627Z,1.13
2023-04-02T03:48:49.248Z,1.52
2023-04-02T03:53:52.088Z,1.90
2023-04-02T03:59:15.426Z,1.85
2023-04-02T04:04:19.064Z,1.40
2023-04-02T04:09:32.948Z,1.85
2023-04-02T04:14:43.982Z,1.83
2023-04-02T04:20:07.754Z,1.65
2023-04-02T04:25:40.139Z,2.00
2023-04-02T04:31:18.418Z,2.97
2023-04-02T04:36:27.825Z,4.93
2023-04-02T04:41:37.728Z,4.13
2023-04-02T04:46:46.008Z,3.53
2023-04-02T04:51:52.155Z,3.67
2023-04-02T04:57:02.554Z,3.40
2023-04-02T05:02:17.479Z,3.25
2023-04-02T05:07:31.839Z,3.85
2023-04-02T05:13:02.853Z,3.30
2023-04-02T05:18:31.691Z,2.83
2023-04-02T05:23:47.156Z,3.60
2023-04-02T05:29:17.192Z,4.07
2023-04-02T05:34:26.414Z,4.55
2023-04-02T05:39:28.530Z,4.80
2023-04-02T05:44:40.870Z,4.40
2023-04-02T05:49:55.485Z,4.80
2023-04-02T05:55:31.505Z,4.20
2023-04-02T06:00:42.584Z,4.18
2023-04-02T06:05:49.387Z,3.92
2023-04-02T06:10:55.532Z,4.03
2023-04-02T06:16:00.093Z,4.60
2023-04-02T06:21:06.312Z,4.68
2023-04-02T06:26:35.418Z,5.40
2023-04-02T06:31:58.804Z,4.03
2023-04-02T06:37:32.471Z,3.95
2023-04-02T06:42:44.540Z,4.32
2023-04-02T06:47:52.520Z,2.60
2023-04-02T06:58:19.232Z,3.78
2023-04-02T07:03:27.311Z,2.80
2023-04-02T07:08:31.518Z,2.90
2023-04-02T07:13:33.214Z,3.03
2023-04-02T07:18:35.133Z,4.07
2023-04-02T07:23:40.495Z,2.92
2023-04-02T07:28:42.610Z,2.92
2023-04-02T07:33:45.373Z,3.40
2023-04-02T07:38:47.722Z,3.28
2023-04-02T07:43:49.600Z,2.88
2023-04-02T07:48:51.235Z,3.38
2023-04-02T07:53:56.214Z,2.45
2023-04-02T07:58:58.038Z,2.15
2023-04-02T08:03:59.723Z,2.72
2023-04-02T08:09:05.088Z,3.95
2023-04-02T08:14:06.891Z,2.42
2023-04-02T08:19:08.517Z,3.17
2023-04-02T08:24:10.341Z,3.88
2023-04-02T08:29:12.188Z,3.67
2023-04-02T08:34:13.896Z,2.95
2023-04-02T08:39:15.596Z,2.55
2023-04-02T08:44:24.802Z,2.90
2023-04-02T08:49:39.963Z,3.13
2023-04-02T08:54:43.608Z,3.00
2023-04-02T08:59:45.813Z,2.40
2023-04-02T09:04:47.949Z,2.55
2023-04-02T09:09:50.505Z,1.20
2023-04-02T09:15:00.939Z,1.42
2023-04-02T09:20:17.321Z,2.30
2023-04-02T09:25:22.561Z,2.20
2023-04-02T09:30:33.621Z,3.05
2023-04-02T09:35:56.539Z,2.63
2023-04-02T09:41:01.476Z,2.30
2023-04-02T09:46:06.335Z,1.83
2023-04-02T09:51:21.719Z,2.47
2023-04-02T09:56:25.641Z,2.13
2023-04-02T10:01:39.011Z,4.43
2023-04-02T10:06:49.861Z,2.42
2023-04-02T10:11:51.925Z,1.95
2023-04-02T10:17:05.567Z,1.65
2023-04-02T10:22:17.395Z,1.95
2023-04-02T10:27:34.269Z,1.75
2023-04-02T10:32:59.959Z,1.58
2023-04-02T10:38:15.866Z,1.75
2023-04-02T10:43:32.899Z,1.55
2023-04-02T10:48:53.163Z,1.65
2023-04-02T10:54:09.865Z,1.48
2023-04-02T10:59:21.379Z,1.92
2023-04-02T11:04:28.566Z,1.33
2023-04-02T11:09:33.944Z,2.40
2023-04-02T11:14:36.578Z,2.45
2023-04-02T11:19:38.626Z,2.60
2023-04-02T11:24:45.152Z,2.20
2023-04-02T11:29:49.538Z,2.78
2023-04-02T11:35:03.499Z,2.28
2023-04-02T11:40:11.055Z,3.17
2023-04-02T11:45:26.298Z,2.15
2023-04-02T11:50:31.072Z,2.50
2023-04-02T11:55:34.293Z,2.58
2023-04-02T12:01:08.488Z,1.92
2023-04-02T12:06:46.869Z,2.17
2023-04-02T12:11:49.920Z,2.17
2023-04-02T12:16:53.397Z,1.77
2023-04-02T12:21:55.681Z,2.13
2023-04-02T12:27:15.166Z,2.60
2023-04-02T12:32:30.054Z,2.08
2023-04-02T12:37:32.128Z,2.38
2023-04-02T12:42:37.736Z,2.58
2023-04-02T12:47:44.765Z,2.45
2023-04-02T12:52:48.727Z,2.63
2023-04-02T12:57:58.556Z,1.38
2023-04-02T13:03:01.804Z,1.55
2023-04-02T13:08:04.307Z,1.00
2023-04-02T13:13:07.645Z,1.27
2023-04-02T13:18:21.302Z,1.15
2023-04-02T13:23:30.330Z,1.15
2023-04-02T13:28:32.016Z,1.45
2023-04-02T13:33:33.721Z,1.40
2023-04-02T13:38:35.362Z,1.75
2023-04-02T13:43:37.224Z,0.93
2023-04-02T13:48:39.665Z,1.17
2023-04-02T13:53:41.462Z,1.20
2023-04-02T13:58:43.135Z,1.02
2023-04-02T14:03:45.452Z,1.45
2023-04-02T14:09:11.603Z,1.42
2023-04-02T14:14:37.915Z,1.00
2023-04-02T14:20:00.864Z,1.30
2023-04-02T14:25:08.523Z,0.93
2023-04-02T14:30:39.938Z,0.73
2023-04-02T14:35:46.613Z,1.00
2023-04-02T14:40:51.671Z,1.63
2023-04-02T14:46:01.985Z,1.48
2023-04-02T14:51:22.627Z,1.30
2023-04-02T14:56:26.786Z,1.90
2023-04-02T15:01:35.374Z,2.40
2023-04-02T15:06:43.105Z,2.58
2023-04-02T15:11:48.330Z,1.85
2023-04-02T15:16:50.008Z,2.53
2023-04-02T15:22:08.072Z,1.30
2023-04-02T15:27:48.219Z,0.98
2023-04-02T15:32:49.953Z,1.25
2023-04-02T15:38:03.723Z,1.05
2023-04-02T15:43:20.749Z,1.05
2023-04-02T15:49:08.051Z,1.23
2023-04-02T15:54:32.326Z,1.00
2023-04-02T15:59:52.374Z,1.52
2023-04-02T16:05:03.902Z,1.55
2023-04-02T16:10:39.996Z,1.63
2023-04-02T16:15:47.107Z,1.98
2023-04-02T16:20:51.059Z,1.67
2023-04-02T16:26:30.870Z,1.50
2023-04-02T16:31:40.942Z,0.98
2023-04-02T16:36:54.490Z,1.20
2023-04-02T16:42:04.672Z,1.17
2023-04-02T16:47:31.048Z,0.95
2023-04-02T16:52:54.288Z,1.15
2023-04-02T16:58:21.510Z,1.05
2023-04-02T17:03:46.928Z,1.38
2023-04-02T17:09:03.941Z,1.42
2023-04-02T17:14:12.404Z,1.35
2023-04-02T17:19:16.052Z,1.38
2023-04-02T17:24:31.358Z,2.22
2023-04-02T17:29:36.801Z,1.40
2023-04-02T17:34:38.477Z,2.40
2023-04-02T17:39:58.283Z,2.33
2023-04-02T17:45:05.020Z,1.83
2023-04-02T17:50:24.934Z,1.40
2023-04-02T17:55:48.155Z,3.13
2023-04-02T18:01:05.387Z,1.63
2023-04-02T18:06:21.320Z,1.75
2023-04-02T18:11:22.859Z,2.00
2023-04-02T18:16:50.243Z,1.90
2023-04-02T18:22:31.294Z,1.60
2023-04-02T18:28:15.142Z,1.60
2023-04-02T18:33:37.647Z,1.67
2023-04-02T18:39:11.693Z,1.73
2023-04-02T18:44:38.968Z,1.73
2023-04-02T18:49:57.796Z,1.45
2023-04-02T18:55:05.591Z,1.77
2023-04-02T19:00:21.759Z,2.15
2023-04-02T19:05:41.374Z,2.13
2023-04-02T19:10:52.742Z,1.90
2023-04-02T19:15:54.384Z,1.92
2023-04-02T19:21:07.125Z,2.05
2023-04-02T19:26:11.552Z,2.72
2023-04-02T19:31:31.948Z,2.25
2023-04-02T19:36:47.425Z,2.40
2023-04-02T19:41:53.979Z,2.47
2023-04-02T19:46:58.701Z,2.22
2023-04-02T19:52:00.706Z,3.38
2023-04-02T19:57:04.069Z,2.67
2023-04-02T20:02:15.781Z,2.17
2023-04-02T20:07:20.878Z,2.03
2023-04-02T20:12:22.538Z,2.90
2023-04-02T20:17:24.261Z,2.42
2023-04-02T20:22:26.167Z,2.45
2023-04-02T20:27:29.531Z,2.05
2023-04-02T20:32:31.322Z,1.63
2023-04-02T20:37:46.357Z,1.75
2023-04-02T20:42:49.385Z,2.40
2023-04-02T20:47:51.142Z,1.88
2023-04-02T20:52:58.156Z,1.17
2023-04-02T21:03:01.378Z,1.90
2023-04-02T21:08:05.431Z,1.58
2023-04-02T21:13:11.657Z,1.23
2023-04-02T21:18:13.309Z,1.30
2023-04-02T21:23:20.986Z,1.00
2023-04-02T21:28:27.390Z,0.95
2023-04-02T21:33:29.722Z,0.77
2023-04-02T21:38:31.478Z,0.88
2023-04-02T21:43:33.096Z,0.77
2023-04-02T21:48:35.004Z,1.02
2023-04-02T21:53:36.866Z,0.50
2023-04-02T21:58:38.615Z,1.15
2023-04-02T22:03:41.987Z,0.90
2023-04-02T22:08:44.547Z,1.08
2023-04-02T22:13:47.785Z,0.95
2023-04-02T22:18:51.421Z,1.70
2023-04-02T22:23:53.160Z,1.13
2023-04-02T22:28:56.826Z,1.50
2023-04-02T22:33:59.643Z,1.17
2023-04-02T22:39:03.556Z,1.25
2023-04-02T22:44:05.341Z,0.68
2023-04-02T22:49:07.069Z,0.70
2023-04-02T22:54:08.691Z,0.90
2023-04-02T22:59:10.444Z,1.52
2023-04-02T23:04:12.112Z,1.00
2023-04-02T23:09:13.731Z,1.20
2023-04-02T23:14:15.397Z,0.93
2023-04-02T23:19:17.123Z,0.68
2023-04-02T23:24:18.784Z,0.90
2023-04-02T23:29:20.486Z,1.08
2023-04-02T23:34:22.128Z,0.88
2023-04-02T23:39:23.751Z,1.02
2023-04-02T23:44:25.872Z,1.48
2023-04-02T23:49:27.976Z,0.70
2023-04-02T23:54:29.605Z,1.17
2023-04-02T23:59:31.231Z,0.95
